createdAt,value
2018-10-02T00:00:37.424Z,17.93
2018-10-02T00:03:06.292Z,17.23
2018-10-02T00:05:34.895Z,19.50
2018-10-02T00:08:03.492Z,14.23
2018-10-02T00:10:32.094Z,15.57
2018-10-02T00:13:05.964Z,12.77
2018-10-02T00:15:34.556Z,18.90
2018-10-02T00:18:03.153Z,14.30
2018-10-02T00:20:31.763Z,14.33
2018-10-02T00:23:00.351Z,13.53
2018-10-02T00:25:28.943Z,15.20
2018-10-02T00:27:57.526Z,13.77
2018-10-02T00:30:26.203Z,12.90
2018-10-02T00:32:54.797Z,14.90
2018-10-02T00:35:23.420Z,16.67
2018-10-02T00:37:52.016Z,16.60
2018-10-02T00:40:20.638Z,14.00
2018-10-02T00:42:49.231Z,17.13
2018-10-02T00:45:17.835Z,18.23
2018-10-02T00:47:46.432Z,22.43
2018-10-02T00:50:15.031Z,17.97
2018-10-02T00:52:43.636Z,17.60
2018-10-02T00:55:12.248Z,14.57
2018-10-02T00:57:40.844Z,15.67
2018-10-02T01:00:09.466Z,17.20
2018-10-02T01:02:38.066Z,14.67
2018-10-02T01:05:06.674Z,18.50
2018-10-02T01:07:35.283Z,18.77
2018-10-02T01:10:03.903Z,18.17
2018-10-02T01:12:32.503Z,18.20
2018-10-02T01:15:01.102Z,11.43
2018-10-02T01:17:29.701Z,11.23
2018-10-02T01:19:58.295Z,15.67
2018-10-02T01:22:26.906Z,16.20
2018-10-02T01:24:55.503Z,15.93
2018-10-02T01:27:24.103Z,13.50
2018-10-02T01:29:52.695Z,14.83
2018-10-02T01:32:21.324Z,15.80
2018-10-02T01:34:49.915Z,17.40
2018-10-02T01:37:18.512Z,12.13
2018-10-02T01:39:47.120Z,19.57
2018-10-02T01:42:15.705Z,20.33
2018-10-02T01:44:44.290Z,12.07
2018-10-02T01:47:12.887Z,13.80
2018-10-02T01:49:41.491Z,14.23
2018-10-02T01:52:10.096Z,15.10
2018-10-02T01:54:38.713Z,12.93
2018-10-02T01:57:07.439Z,23.70
2018-10-02T01:59:36.025Z,12.70
2018-10-02T02:02:04.627Z,14.57
2018-10-02T02:04:33.233Z,11.63
2018-10-02T02:07:01.839Z,11.83
2018-10-02T02:09:30.441Z,18.50
2018-10-02T02:11:59.054Z,18.73
2018-10-02T02:14:27.643Z,11.77
2018-10-02T02:16:56.256Z,12.90
2018-10-02T02:19:25.258Z,15.00
2018-10-02T02:21:53.863Z,15.27
2018-10-02T02:24:22.485Z,15.70
2018-10-02T02:26:51.086Z,12.30
2018-10-02T02:29:19.686Z,9.83
2018-10-02T02:31:48.299Z,14.87
2018-10-02T02:34:16.899Z,22.67
2018-10-02T02:36:45.525Z,9.77
2018-10-02T02:39:14.108Z,9.10
2018-10-02T02:41:42.753Z,12.70
2018-10-02T02:44:11.355Z,18.40
2018-10-02T02:46:40.023Z,9.43
2018-10-02T02:49:14.051Z,11.57
2018-10-02T02:51:42.701Z,12.47
2018-10-02T02:54:11.317Z,12.43
2018-10-02T02:56:39.943Z,14.90
2018-10-02T02:59:08.555Z,17.60
2018-10-02T03:01:37.192Z,13.40
2018-10-02T03:04:05.816Z,12.77
2018-10-02T03:06:34.571Z,10.97
2018-10-02T03:09:03.190Z,11.00
2018-10-02T03:11:31.808Z,14.20
2018-10-02T03:14:00.430Z,11.20
2018-10-02T03:16:29.051Z,11.53
2018-10-02T03:18:57.719Z,15.20
2018-10-02T03:21:26.333Z,14.30
2018-10-02T03:23:54.977Z,11.50
2018-10-02T03:26:23.531Z,8.47
2018-10-02T03:28:52.135Z,10.93
2018-10-02T03:31:20.763Z,11.73
2018-10-02T03:33:49.528Z,11.60
2018-10-02T03:36:18.175Z,15.40
2018-10-02T03:38:46.791Z,9.57
2018-10-02T03:41:15.447Z,9.67
2018-10-02T03:43:44.063Z,11.70
2018-10-02T03:46:12.719Z,12.40
2018-10-02T03:48:41.399Z,8.30
2018-10-02T03:51:09.949Z,12.80
2018-10-02T03:53:38.583Z,8.90
2018-10-02T03:56:07.195Z,11.33
2018-10-02T03:58:36.004Z,8.73
2018-10-02T04:01:04.616Z,13.23
2018-10-02T04:03:33.265Z,11.13
2018-10-02T04:06:01.880Z,9.73
2018-10-02T04:08:30.579Z,10.37
2018-10-02T04:10:59.183Z,10.33
2018-10-02T04:13:27.808Z,10.23
2018-10-02T04:15:56.445Z,7.97
2018-10-02T04:18:25.042Z,19.03
2018-10-02T04:20:53.738Z,7.60
2018-10-02T04:23:22.262Z,9.23
2018-10-02T04:25:50.971Z,8.77
2018-10-02T04:28:19.641Z,12.47
2018-10-02T04:30:48.292Z,13.07
2018-10-02T04:33:16.906Z,12.17
2018-10-02T04:35:45.598Z,13.80
2018-10-02T04:38:14.222Z,15.90
2018-10-02T04:40:42.804Z,11.23
2018-10-02T04:43:11.431Z,14.60
2018-10-02T04:45:40.036Z,11.00
2018-10-02T04:48:08.616Z,14.37
2018-10-02T04:50:37.215Z,7.03
2018-10-02T04:53:05.871Z,13.70
2018-10-02T04:55:34.533Z,10.47
2018-10-02T04:58:03.098Z,13.17
2018-10-02T05:00:31.726Z,11.80
2018-10-02T05:03:00.328Z,13.50
2018-10-02T05:05:28.933Z,10.83
2018-10-02T05:07:57.584Z,19.33
2018-10-02T05:10:26.205Z,10.67
2018-10-02T05:12:54.826Z,8.73
2018-10-02T05:15:23.423Z,12.50
2018-10-02T05:17:52.023Z,9.10
2018-10-02T05:20:20.637Z,7.77
2018-10-02T05:22:49.259Z,6.70
2018-10-02T05:25:17.875Z,11.30
2018-10-02T05:27:56.072Z,7.30
2018-10-02T05:30:26.287Z,8.80
2018-10-02T05:32:55.362Z,13.90
2018-10-02T05:35:24.017Z,10.43
2018-10-02T05:37:52.547Z,10.30
2018-10-02T05:40:21.211Z,11.00
2018-10-02T05:42:50.016Z,15.47
2018-10-02T05:45:18.499Z,8.30
2018-10-02T05:47:47.091Z,10.03
2018-10-02T05:50:15.702Z,12.47
2018-10-02T05:52:44.318Z,10.33
2018-10-02T05:55:12.932Z,13.90
2018-10-02T05:57:41.569Z,10.67
2018-10-02T06:00:10.273Z,12.60
2018-10-02T06:02:38.995Z,15.03
2018-10-02T06:05:07.590Z,10.60
2018-10-02T06:07:36.192Z,8.83
2018-10-02T06:10:04.954Z,8.57
2018-10-02T06:12:33.503Z,18.07
2018-10-02T06:15:02.141Z,16.13
2018-10-02T06:17:30.772Z,16.27
2018-10-02T06:19:59.403Z,9.17
2018-10-02T06:22:28.015Z,21.23
2018-10-02T06:24:56.649Z,31.60
2018-10-02T06:27:25.255Z,9.90
2018-10-02T06:29:53.879Z,25.87
2018-10-02T06:32:22.482Z,15.37
2018-10-02T06:34:51.099Z,10.23
2018-10-02T06:37:19.796Z,13.70
2018-10-02T06:39:48.407Z,12.63
2018-10-02T06:42:17.036Z,9.93
2018-10-02T06:44:45.714Z,9.70
2018-10-02T06:47:14.264Z,13.97
2018-10-02T06:49:42.851Z,14.30
2018-10-02T06:52:11.728Z,13.23
2018-10-02T06:54:40.117Z,14.33
2018-10-02T06:57:08.823Z,11.03
2018-10-02T06:59:37.331Z,10.23
2018-10-02T07:02:06.017Z,7.77
2018-10-02T07:04:34.661Z,9.10
2018-10-02T07:07:03.271Z,14.77
2018-10-02T07:09:31.928Z,12.17
2018-10-02T07:12:00.569Z,12.53
2018-10-02T07:14:29.168Z,56.43
2018-10-02T07:16:57.867Z,35.27
2018-10-02T07:19:26.696Z,12.27
2018-10-02T07:21:55.300Z,12.70
2018-10-02T07:24:23.913Z,9.53
2018-10-02T07:26:52.698Z,13.33
2018-10-02T07:29:21.127Z,8.53
2018-10-02T07:31:49.768Z,32.93
2018-10-02T07:34:18.408Z,22.03
2018-10-02T07:36:47.053Z,8.33
2018-10-02T07:39:15.672Z,13.50
2018-10-02T07:41:44.326Z,13.67
2018-10-02T07:44:12.912Z,11.23
2018-10-02T07:46:41.539Z,7.27
2018-10-02T07:49:10.131Z,7.90
2018-10-02T07:51:38.779Z,19.70
2018-10-02T07:54:07.421Z,10.03
2018-10-02T07:56:36.044Z,10.60
2018-10-02T07:59:04.834Z,12.37
2018-10-02T08:01:33.460Z,6.47
2018-10-02T08:04:02.089Z,11.60
2018-10-02T08:06:30.741Z,12.07
2018-10-02T08:08:59.433Z,14.87
2018-10-02T08:11:27.999Z,9.43
2018-10-02T08:13:56.599Z,8.60
2018-10-02T08:16:25.223Z,9.97
2018-10-02T08:18:53.834Z,13.30
2018-10-02T08:21:22.467Z,10.70
2018-10-02T08:23:51.122Z,11.67
2018-10-02T08:26:19.750Z,14.30
2018-10-02T08:28:48.398Z,12.17
2018-10-02T08:31:17.039Z,13.93
2018-10-02T08:33:45.676Z,12.87
2018-10-02T08:36:14.361Z,12.27
2018-10-02T08:38:42.912Z,9.67
2018-10-02T08:41:11.496Z,13.37
2018-10-02T08:43:40.153Z,16.90
2018-10-02T08:46:08.784Z,9.13
2018-10-02T08:48:37.408Z,13.07
2018-10-02T08:51:06.086Z,11.13
2018-10-02T08:53:34.679Z,10.10
2018-10-02T08:56:03.236Z,14.33
2018-10-02T08:58:31.900Z,9.10
2018-10-02T09:01:00.523Z,14.47
2018-10-02T09:03:29.151Z,10.37
2018-10-02T09:05:57.763Z,21.50
2018-10-02T09:08:26.363Z,15.60
2018-10-02T09:10:54.997Z,16.80
2018-10-02T09:13:23.608Z,15.37
2018-10-02T09:15:52.413Z,8.67
2018-10-02T09:18:20.861Z,9.70
2018-10-02T09:20:49.452Z,6.60
2018-10-02T09:23:18.016Z,12.03
2018-10-02T09:25:46.612Z,14.40
2018-10-02T09:28:15.294Z,7.63
2018-10-02T09:30:49.553Z,12.13
2018-10-02T09:33:23.580Z,6.13
2018-10-02T09:35:57.580Z,6.30
2018-10-02T09:38:31.590Z,9.67
2018-10-02T09:41:05.706Z,10.40
2018-10-02T09:43:38.071Z,5.60
2018-10-02T09:46:06.620Z,10.10
2018-10-02T09:48:35.291Z,6.80
2018-10-02T09:51:03.852Z,8.70
2018-10-02T09:53:32.487Z,6.57
2018-10-02T09:56:01.086Z,8.30
2018-10-02T09:58:29.787Z,14.17
2018-10-02T10:01:03.750Z,7.83
2018-10-02T10:03:32.299Z,6.03
2018-10-02T10:06:00.895Z,10.00
2018-10-02T10:08:29.524Z,13.10
2018-10-02T10:10:58.160Z,16.20
2018-10-02T10:13:26.775Z,18.30
2018-10-02T10:15:55.387Z,14.20
2018-10-02T10:18:24.000Z,7.60
2018-10-02T10:20:52.634Z,12.83
2018-10-02T10:23:21.248Z,13.60
2018-10-02T10:25:49.832Z,12.40
2018-10-02T10:28:18.504Z,18.60
2018-10-02T10:30:47.166Z,11.30
2018-10-02T10:33:15.797Z,9.27
2018-10-02T10:35:44.382Z,7.83
2018-10-02T10:38:12.967Z,8.13
2018-10-02T10:40:41.742Z,9.33
2018-10-02T10:43:10.146Z,13.60
2018-10-02T10:45:38.759Z,9.20
2018-10-02T10:48:07.435Z,10.10
2018-10-02T10:50:36.045Z,14.40
2018-10-02T10:53:04.710Z,7.77
2018-10-02T10:55:36.399Z,5.53
2018-10-02T10:58:05.005Z,5.57
2018-10-02T11:00:33.613Z,6.30
2018-10-02T11:03:02.235Z,4.97
2018-10-02T11:05:30.803Z,4.67
2018-10-02T11:07:59.391Z,5.67
2018-10-02T11:10:27.983Z,5.60
2018-10-02T11:12:56.567Z,5.50
2018-10-02T11:15:27.336Z,4.70
2018-10-02T11:17:55.928Z,5.33
2018-10-02T11:20:26.485Z,8.63
2018-10-02T11:22:55.063Z,6.10
2018-10-02T11:25:23.711Z,3.47
2018-10-02T11:27:52.266Z,5.13
2018-10-02T11:30:20.867Z,4.87
2018-10-02T11:32:49.458Z,5.20
2018-10-02T11:35:18.173Z,6.50
2018-10-02T11:37:46.893Z,5.27
2018-10-02T11:40:15.859Z,7.63
2018-10-02T11:42:44.487Z,6.87
2018-10-02T11:45:13.113Z,5.33
2018-10-02T11:47:41.691Z,4.87
2018-10-02T11:50:10.288Z,5.13
2018-10-02T11:52:38.888Z,4.60
2018-10-02T11:55:07.537Z,5.70
2018-10-02T11:57:36.106Z,5.00
2018-10-02T12:00:05.217Z,5.20
2018-10-02T12:02:33.826Z,8.20
2018-10-02T12:05:02.420Z,6.40
2018-10-02T12:07:31.024Z,8.13
2018-10-02T12:09:59.624Z,28.60
2018-10-02T12:12:28.222Z,6.10
2018-10-02T12:14:56.890Z,6.47
2018-10-02T12:17:25.428Z,8.20
2018-10-02T12:19:54.240Z,12.73
2018-10-02T12:22:22.637Z,7.13
2018-10-02T12:24:51.227Z,9.10
2018-10-02T12:27:19.811Z,10.07
2018-10-02T12:29:48.456Z,10.20
2018-10-02T12:32:17.068Z,8.20
2018-10-02T12:34:45.696Z,16.20
2018-10-02T12:37:14.344Z,10.93
2018-10-02T12:39:42.958Z,13.20
2018-10-02T12:42:11.546Z,9.97
2018-10-02T12:44:40.198Z,13.23
2018-10-02T12:47:08.795Z,8.97
2018-10-02T12:49:37.412Z,10.63
2018-10-02T12:52:06.032Z,8.33
2018-10-02T12:54:34.612Z,8.53
2018-10-02T12:57:03.208Z,8.23
2018-10-02T12:59:31.805Z,14.63
2018-10-02T13:02:00.399Z,11.77
2018-10-02T13:04:29.045Z,11.70
2018-10-02T13:06:57.954Z,10.77
2018-10-02T13:09:26.516Z,12.20
2018-10-02T13:11:55.133Z,10.57
2018-10-02T13:14:23.716Z,12.50
2018-10-02T13:16:52.327Z,13.73
2018-10-02T13:19:20.951Z,14.60
2018-10-02T13:21:49.571Z,19.80
2018-10-02T13:24:18.167Z,17.70
2018-10-02T13:26:47.181Z,16.90
2018-10-02T13:29:15.775Z,18.27
2018-10-02T13:31:44.376Z,21.47
2018-10-02T13:34:13.475Z,17.23
2018-10-02T13:36:42.111Z,20.23
2018-10-02T13:39:10.708Z,21.20
2018-10-02T13:41:39.318Z,23.53
2018-10-02T13:44:07.924Z,28.50
2018-10-02T13:46:36.548Z,26.40
2018-10-02T13:49:05.155Z,24.23
2018-10-02T13:51:33.809Z,24.77
2018-10-02T13:54:02.524Z,27.90
2018-10-02T13:56:31.119Z,30.17
2018-10-02T13:58:59.747Z,31.53
2018-10-02T14:01:28.373Z,30.33
2018-10-02T14:03:56.947Z,31.17
2018-10-02T14:06:25.537Z,34.70
2018-10-02T14:08:54.154Z,34.90
2018-10-02T14:11:22.775Z,42.13
2018-10-02T14:13:51.388Z,40.37
2018-10-02T14:16:20.138Z,38.90
2018-10-02T14:18:49.056Z,47.43
2018-10-02T14:21:17.647Z,41.00
2018-10-02T14:23:46.239Z,43.10
2018-10-02T14:26:14.835Z,49.67
2018-10-02T14:28:43.437Z,44.93
2018-10-02T14:31:12.048Z,47.47
2018-10-02T14:33:40.664Z,42.00
2018-10-02T14:36:09.263Z,45.30
2018-10-02T14:38:37.889Z,43.27
2018-10-02T14:41:06.576Z,46.77
2018-10-02T14:43:35.191Z,43.67
2018-10-02T14:46:03.795Z,47.70
2018-10-02T14:48:32.412Z,45.87
2018-10-02T14:51:01.663Z,46.97
2018-10-02T14:53:30.284Z,44.63
2018-10-02T14:56:05.964Z,44.67
2018-10-02T14:58:37.089Z,45.10
2018-10-02T15:01:07.015Z,43.53
2018-10-02T15:03:37.306Z,39.50
2018-10-02T15:06:10.219Z,39.77
2018-10-02T15:08:41.936Z,44.67
2018-10-02T15:11:15.989Z,43.20
2018-10-02T15:13:44.615Z,40.53
2018-10-02T15:16:13.234Z,41.00
2018-10-02T15:18:48.822Z,37.00
2018-10-02T15:21:18.286Z,38.67
2018-10-02T15:23:46.917Z,42.43
2018-10-02T15:26:15.639Z,39.73
2018-10-02T15:28:45.461Z,41.67
2018-10-02T15:31:14.292Z,38.37
2018-10-02T15:33:42.807Z,41.40
2018-10-02T15:36:18.286Z,39.13
2018-10-02T15:38:47.013Z,41.23
2018-10-02T15:41:15.615Z,40.50
2018-10-02T15:43:44.272Z,39.03
2018-10-02T15:46:12.875Z,40.80
2018-10-02T15:48:41.504Z,40.67
2018-10-02T15:51:10.155Z,38.77
2018-10-02T15:53:38.717Z,38.00
2018-10-02T15:56:10.065Z,38.33
2018-10-02T15:58:38.988Z,35.87
2018-10-02T16:01:07.611Z,37.13
2018-10-02T16:03:36.284Z,36.93
2018-10-02T16:06:04.868Z,35.00
2018-10-02T16:08:33.514Z,33.43
2018-10-02T16:11:02.176Z,32.13
2018-10-02T16:13:30.715Z,30.90
2018-10-02T16:15:59.347Z,29.67
2018-10-02T16:18:28.092Z,29.17
2018-10-02T16:20:56.639Z,23.90
2018-10-02T16:23:25.249Z,24.20
2018-10-02T16:25:53.860Z,27.80
2018-10-02T16:28:22.459Z,20.13
2018-10-02T16:30:51.085Z,23.23
2018-10-02T16:33:19.707Z,22.70
2018-10-02T16:35:48.314Z,23.53
2018-10-02T16:38:16.937Z,19.27
2018-10-02T16:40:45.771Z,19.80
2018-10-02T16:43:14.315Z,22.17
2018-10-02T16:45:42.980Z,23.60
2018-10-02T16:48:11.605Z,25.10
2018-10-02T16:51:44.916Z,22.60
2018-10-02T16:54:20.075Z,26.43
2018-10-02T16:56:48.673Z,26.10
2018-10-02T16:59:17.324Z,24.00
2018-10-02T17:01:47.083Z,24.70
2018-10-02T17:04:16.288Z,24.77
2018-10-02T17:06:44.891Z,24.67
2018-10-02T17:09:13.508Z,23.10
2018-10-02T17:11:42.425Z,28.37
2018-10-02T17:14:11.012Z,21.73
2018-10-02T17:16:39.651Z,25.67
2018-10-02T17:19:08.257Z,25.00
2018-10-02T17:21:37.402Z,24.67
2018-10-02T17:24:06.183Z,25.60
2018-10-02T17:26:34.864Z,26.67
2018-10-02T17:29:03.520Z,25.63
2018-10-02T17:31:32.062Z,23.97
2018-10-02T17:34:00.696Z,26.83
2018-10-02T17:36:29.301Z,24.30
2018-10-02T17:39:07.378Z,22.40
2018-10-02T17:41:36.039Z,26.43
2018-10-02T17:44:04.651Z,18.83
2018-10-02T17:46:33.500Z,17.83
2018-10-02T17:49:02.505Z,20.00
2018-10-02T17:51:31.315Z,18.37
2018-10-02T17:53:59.910Z,15.63
2018-10-02T17:56:28.516Z,14.00
2018-10-02T17:58:57.123Z,14.27
2018-10-02T18:01:25.815Z,6.03
2018-10-02T18:03:54.332Z,8.20
2018-10-02T18:06:22.936Z,13.73
2018-10-02T18:08:51.548Z,10.70
2018-10-02T18:11:20.169Z,11.40
2018-10-02T18:13:48.767Z,7.63
2018-10-02T18:16:17.403Z,9.23
2018-10-02T18:18:45.996Z,7.67
2018-10-02T18:21:14.595Z,16.33
2018-10-02T18:23:43.199Z,10.07
2018-10-02T18:26:11.811Z,10.90
2018-10-02T18:28:40.535Z,10.77
2018-10-02T18:31:09.152Z,14.13
2018-10-02T18:33:37.752Z,5.40
2018-10-02T18:36:06.366Z,11.90
2018-10-02T18:38:34.966Z,14.97
2018-10-02T18:41:03.587Z,14.83
2018-10-02T18:43:32.192Z,21.30
2018-10-02T18:46:00.795Z,9.50
2018-10-02T18:48:29.422Z,13.87
2018-10-02T18:50:58.120Z,12.73
2018-10-02T18:53:26.743Z,11.07
2018-10-02T18:55:55.341Z,12.80
2018-10-02T18:58:23.952Z,12.70
2018-10-02T19:00:52.539Z,9.40
2018-10-02T19:03:21.135Z,10.13
2018-10-02T19:05:49.767Z,11.83
2018-10-02T19:08:23.824Z,12.23
2018-10-02T19:10:52.444Z,11.67
2018-10-02T19:13:21.044Z,10.00
2018-10-02T19:16:57.660Z,10.63
2018-10-02T19:19:31.603Z,14.93
2018-10-02T19:22:00.239Z,14.43
2018-10-02T19:24:28.839Z,10.40
2018-10-02T19:26:57.460Z,10.20
2018-10-02T19:29:26.059Z,7.50
2018-10-02T19:32:00.148Z,9.93
2018-10-02T19:34:28.754Z,8.37
2018-10-02T19:36:57.347Z,10.40
2018-10-02T19:39:28.443Z,10.17
2018-10-02T19:41:57.359Z,10.70
2018-10-02T19:44:25.977Z,12.50
2018-10-02T19:46:56.176Z,11.13
2018-10-02T19:49:27.209Z,11.67
2018-10-02T19:51:59.807Z,13.03
2018-10-02T19:54:28.415Z,9.20
2018-10-02T19:56:57.216Z,13.63
2018-10-02T19:59:25.981Z,10.97
2018-10-02T20:01:54.498Z,17.73
2018-10-02T20:04:23.169Z,14.50
2018-10-02T20:06:51.715Z,9.63
2018-10-02T20:09:20.315Z,10.70
2018-10-02T20:11:48.924Z,19.70
2018-10-02T20:14:17.540Z,16.77
2018-10-02T20:16:46.139Z,14.67
2018-10-02T20:19:14.747Z,13.67
2018-10-02T20:21:43.519Z,10.33
2018-10-02T20:24:12.107Z,12.40
2018-10-02T20:26:40.712Z,19.00
2018-10-02T20:29:09.407Z,22.80
2018-10-02T20:31:40.787Z,12.30
2018-10-02T20:34:09.409Z,15.57
2018-10-02T20:36:38.340Z,16.00
2018-10-02T20:39:08.159Z,10.57
2018-10-02T20:41:36.811Z,15.00
2018-10-02T20:44:05.463Z,8.23
2018-10-02T20:46:34.092Z,10.97
2018-10-02T20:49:02.737Z,13.73
2018-10-02T20:51:31.356Z,16.73
2018-10-02T20:54:00.192Z,15.23
2018-10-02T20:56:29.507Z,13.33
2018-10-02T20:58:58.190Z,12.80
2018-10-02T21:01:27.203Z,12.30
2018-10-02T21:03:55.791Z,17.97
2018-10-02T21:06:24.708Z,13.23
2018-10-02T21:08:53.346Z,15.20
2018-10-02T21:11:21.948Z,12.97
2018-10-02T21:13:50.552Z,12.10
2018-10-02T21:16:19.356Z,11.53
2018-10-02T21:18:47.922Z,15.00
2018-10-02T21:21:16.546Z,17.30
2018-10-02T21:23:45.139Z,9.00
2018-10-02T21:26:13.747Z,10.43
2018-10-02T21:28:42.406Z,13.83
2018-10-02T21:31:10.959Z,13.80
2018-10-02T21:33:39.571Z,14.80
2018-10-02T21:36:08.220Z,14.40
2018-10-02T21:38:36.806Z,15.47
2018-10-02T21:41:05.414Z,13.60
2018-10-02T21:43:34.028Z,14.47
2018-10-02T21:46:02.636Z,16.73
2018-10-02T21:48:31.273Z,13.07
2018-10-02T21:50:59.856Z,13.10
2018-10-02T21:53:28.475Z,18.70
2018-10-02T21:55:57.067Z,14.80
2018-10-02T21:58:25.671Z,23.53
2018-10-02T22:00:58.514Z,14.37
2018-10-02T22:03:27.131Z,15.20
2018-10-02T22:05:55.748Z,19.63
2018-10-02T22:08:24.351Z,15.47
2018-10-02T22:10:52.956Z,17.73
2018-10-02T22:13:21.563Z,16.10
2018-10-02T22:15:50.163Z,15.50
2018-10-02T22:18:18.762Z,18.23
2018-10-02T22:20:47.363Z,15.03
2018-10-02T22:23:15.983Z,13.20
2018-10-02T22:25:44.583Z,18.57
2018-10-02T22:28:13.191Z,14.50
2018-10-02T22:30:41.791Z,13.27
2018-10-02T22:33:10.422Z,12.63
2018-10-02T22:35:39.030Z,16.73
2018-10-02T22:38:07.660Z,16.80
2018-10-02T22:40:37.425Z,15.33
2018-10-02T22:43:06.103Z,15.90
2018-10-02T22:45:34.722Z,16.80
2018-10-02T22:48:03.322Z,18.20
2018-10-02T22:50:32.016Z,10.23
2018-10-02T22:53:00.675Z,15.23
2018-10-02T22:55:29.275Z,17.67
2018-10-02T22:57:57.872Z,13.47
2018-10-02T23:00:26.477Z,18.53
2018-10-02T23:02:55.103Z,10.40
2018-10-02T23:05:23.708Z,9.87
2018-10-02T23:07:52.360Z,20.63
2018-10-02T23:10:20.968Z,13.70
2018-10-02T23:12:49.567Z,15.50
2018-10-02T23:15:18.188Z,11.27
2018-10-02T23:17:46.764Z,9.30
2018-10-02T23:20:15.371Z,10.63
2018-10-02T23:22:43.975Z,15.03
2018-10-02T23:25:12.796Z,11.73
2018-10-02T23:27:41.599Z,11.83
2018-10-02T23:30:10.251Z,14.60
2018-10-02T23:32:46.748Z,11.13
2018-10-02T23:35:20.307Z,16.17
2018-10-02T23:37:48.991Z,16.10
2018-10-02T23:40:17.599Z,11.33
2018-10-02T23:42:46.544Z,11.83
2018-10-02T23:45:15.183Z,13.63
2018-10-02T23:47:43.899Z,10.43
2018-10-02T23:50:12.507Z,13.73
2018-10-02T23:52:41.608Z,10.33
2018-10-02T23:55:10.235Z,15.23
2018-10-02T23:57:38.827Z,10.77
